Ana Sayfa
METAR-TAF:

METAR-TAF

Havaalanları :

Coles County Memorial Airport

Mattoon / Charleston, Illinois, Amerika Birleşik Devletleri

Enlem: 39-28-41N, Boylam: 088-16-45W, yükseklik: 220 m

Güncel hava durumu gözlemi

Rapor saat 11:53 UTC de 49 dakika önce yapıldı.
Rüzgar güneydan 12 kt ve 19 kt'a kadar ani rüzgarlar
Sıcaklık 18°C
Nem 94%
Basınç 1006 hPa
Görüş mesafesi: 16.1 km
Açık gökyüzü

METAR: KMTO 171153Z AUTO 18012G19KT 10SM CLR 18/17 A2970 RMK AO2 SLP051 7//// T01830172 10194 20183 55003 $

Saat: 07:42 (12:42 UTC)


TAF: eksik

4.000'den fazla havaalanı için hava durumu gözlemleri ve tahminleri (METAR ve TAF raporları).

Kullanılabilir istasyonlar harita üzerinde sarı ve kırmızı noktalarla gösterilir.

İstasyonun adını görmek için fareyi noktanın üzerinde gezdirin.

Sonrasında hava gözlem ve tahminlerini görmek için tıklayın.

Haritayı değiştirmek için: yaklaştırmak için siyah artı işaretli yeşil düğmeye ve uzaklaştırmak için de eksi işaretli düğmeye hızla tıklayın; bitişik haritalar için yeşil okları kullanın.


METAR-TAF: